sensor_id;sensor_type;location;lat;lon;timestamp;pressure;altitude;pressure_sealevel;temperature;humidity
62544;BME280;48597;49.030;1.822;2024-01-15T00:00:17;100195.44;;;19.05;33.65
62544;BME280;48597;49.030;1.822;2024-01-15T00:02:43;100186.88;;;19.05;33.59
62544;BME280;48597;49.030;1.822;2024-01-15T00:05:08;100187.34;;;19.03;33.75
62544;BME280;48597;49.030;1.822;2024-01-15T00:07:35;100183.22;;;19.04;33.81
62544;BME280;48597;49.030;1.822;2024-01-15T00:10:00;100189.38;;;19.03;33.63
62544;BME280;48597;49.030;1.822;2024-01-15T00:12:26;100185.28;;;19.04;33.68
62544;BME280;48597;49.030;1.822;2024-01-15T00:14:51;100181.50;;;19.07;33.65
62544;BME280;48597;49.030;1.822;2024-01-15T00:17:17;100182.75;;;19.06;33.68
62544;BME280;48597;49.030;1.822;2024-01-15T00:19:42;100168.13;;;19.04;33.69
62544;BME280;48597;49.030;1.822;2024-01-15T00:22:08;100161.16;;;19.05;33.66
62544;BME280;48597;49.030;1.822;2024-01-15T00:24:33;100165.16;;;19.07;33.74
62544;BME280;48597;49.030;1.822;2024-01-15T00:26:58;100162.63;;;19.09;33.57
62544;BME280;48597;49.030;1.822;2024-01-15T00:29:24;100161.06;;;19.08;33.53
62544;BME280;48597;49.030;1.822;2024-01-15T00:31:49;100154.84;;;19.10;33.66
62544;BME280;48597;49.030;1.822;2024-01-15T00:34:15;100155.34;;;19.08;33.70
62544;BME280;48597;49.030;1.822;2024-01-15T00:36:40;100142.31;;;19.07;33.63
62544;BME280;48597;49.030;1.822;2024-01-15T00:39:05;100157.41;;;19.08;33.58
62544;BME280;48597;49.030;1.822;2024-01-15T00:41:31;100149.28;;;19.06;33.63
62544;BME280;48597;49.030;1.822;2024-01-15T00:43:56;100148.47;;;19.06;33.55
62544;BME280;48597;49.030;1.822;2024-01-15T00:46:22;100133.41;;;19.05;33.60
62544;BME280;48597;49.030;1.822;2024-01-15T00:48:47;100133.41;;;19.05;33.46
62544;BME280;48597;49.030;1.822;2024-01-15T00:51:13;100134.66;;;19.04;33.64
62544;BME280;48597;49.030;1.822;2024-01-15T00:53:38;100141.19;;;19.05;33.55
62544;BME280;48597;49.030;1.822;2024-01-15T00:56:04;100121.19;;;19.05;33.57
62544;BME280;48597;49.030;1.822;2024-01-15T00:58:29;100125.63;;;19.06;33.44
62544;BME280;48597;49.030;1.822;2024-01-15T01:00:55;100124.50;;;19.03;33.63
62544;BME280;48597;49.030;1.822;2024-01-15T01:03:20;100117.06;;;19.06;33.50
62544;BME280;48597;49.030;1.822;2024-01-15T01:05:48;100115.47;;;19.05;33.48
62544;BME280;48597;49.030;1.822;2024-01-15T01:08:13;100115.47;;;19.05;33.39
62544;BME280;48597;49.030;1.822;2024-01-15T01:10:39;100106.56;;;19.03;33.68
62544;BME280;48597;49.030;1.822;2024-01-15T01:13:04;100113.88;;;19.04;33.67
62544;BME280;48597;49.030;1.822;2024-01-15T01:15:30;100120.84;;;19.03;33.57
62544;BME280;48597;49.030;1.822;2024-01-15T01:17:55;100110.22;;;19.03;33.57
62544;BME280;48597;49.030;1.822;2024-01-15T01:20:20;100098.78;;;19.03;33.61
62544;BME280;48597;49.030;1.822;2024-01-15T01:22:46;100110.69;;;19.02;33.67
62544;BME280;48597;49.030;1.822;2024-01-15T01:25:11;100102.91;;;19.02;33.51
62544;BME280;48597;49.030;1.822;2024-01-15T01:27:36;100101.66;;;19.03;33.69
62544;BME280;48597;49.030;1.822;2024-01-15T01:30:02;100083.38;;;19.01;33.69
62544;BME280;48597;49.030;1.822;2024-01-15T01:32:28;100086.91;;;19.05;33.69
62544;BME280;48597;49.030;1.822;2024-01-15T01:34:53;100081.66;;;19.03;33.65
62544;BME280;48597;49.030;1.822;2024-01-15T01:37:19;100079.25;;;19.02;33.74
62544;BME280;48597;49.030;1.822;2024-01-15T01:39:45;100082.91;;;19.02;33.82
62544;BME280;48597;49.030;1.822;2024-01-15T01:42:11;100075.94;;;19.03;33.71
62544;BME280;48597;49.030;1.822;2024-01-15T01:44:37;100081.84;;;19.09;33.66
62544;BME280;48597;49.030;1.822;2024-01-15T01:47:03;100081.84;;;19.09;33.46
62544;BME280;48597;49.030;1.822;2024-01-15T01:49:29;100075.34;;;19.08;33.54
62544;BME280;48597;49.030;1.822;2024-01-15T01:51:57;100076.94;;;19.09;33.64
62544;BME280;48597;49.030;1.822;2024-01-15T01:54:23;100081.84;;;19.09;33.53
62544;BME280;48597;49.030;1.822;2024-01-15T01:56:49;100078.22;;;19.08;33.59
62544;BME280;48597;49.030;1.822;2024-01-15T01:59:16;100074.56;;;19.08;33.50
62544;BME280;48597;49.030;1.822;2024-01-15T02:01:41;100078.69;;;19.07;33.59
62544;BME280;48597;49.030;1.822;2024-01-15T02:04:08;100075.81;;;19.07;33.46
62544;BME280;48597;49.030;1.822;2024-01-15T02:06:34;100078.69;;;19.07;33.49
62544;BME280;48597;49.030;1.822;2024-01-15T02:09:00;100089.31;;;19.06;33.59
62544;BME280;48597;49.030;1.822;2024-01-15T02:11:26;100087.72;;;19.05;33.52
62544;BME280;48597;49.030;1.822;2024-01-15T02:13:51;100081.19;;;19.05;33.68
62544;BME280;48597;49.030;1.822;2024-01-15T02:16:20;100080.84;;;19.03;33.54
62544;BME280;48597;49.030;1.822;2024-01-15T02:18:46;100077.53;;;19.04;33.56
62544;BME280;48597;49.030;1.822;2024-01-15T02:21:15;100085.31;;;19.04;33.64
62544;BME280;48597;49.030;1.822;2024-01-15T02:23:41;100076.75;;;19.04;33.58
62544;BME280;48597;49.030;1.822;2024-01-15T02:26:07;100080.06;;;19.02;33.66
62544;BME280;48597;49.030;1.822;2024-01-15T02:28:33;100075.16;;;19.03;33.70
62544;BME280;48597;49.030;1.822;2024-01-15T02:30:59;100074.34;;;19.02;33.69
62544;BME280;48597;49.030;1.822;2024-01-15T02:33:24;100072.28;;;19.03;33.66
62544;BME280;48597;49.030;1.822;2024-01-15T02:35:50;100064.50;;;19.03;33.58
62544;BME280;48597;49.030;1.822;2024-01-15T02:38:16;100066.56;;;19.03;33.67
62544;BME280;48597;49.030;1.822;2024-01-15T02:44:09;100066.91;;;19.05;33.72
62544;BME280;48597;49.030;1.822;2024-01-15T02:46:34;100081.19;;;19.05;33.81
62544;BME280;48597;49.030;1.822;2024-01-15T02:49:00;100082.00;;;19.05;33.69
62544;BME280;48597;49.030;1.822;2024-01-15T02:51:25;100073.28;;;19.09;33.67
62544;BME280;48597;49.030;1.822;2024-01-15T02:53:52;100077.72;;;19.10;33.59
62544;BME280;48597;49.030;1.822;2024-01-15T02:56:17;100083.13;;;19.08;33.80
62544;BME280;48597;49.030;1.822;2024-01-15T02:58:43;100081.06;;;19.08;33.79
62544;BME280;48597;49.030;1.822;2024-01-15T03:01:08;100080.56;;;19.10;33.63
62544;BME280;48597;49.030;1.822;2024-01-15T03:03:33;100082.19;;;19.11;33.74
62544;BME280;48597;49.030;1.822;2024-01-15T03:05:59;100079.31;;;19.11;33.72
62544;BME280;48597;49.030;1.822;2024-01-15T03:08:24;100079.66;;;19.13;33.59
62544;BME280;48597;49.030;1.822;2024-01-15T03:10:50;100075.19;;;19.12;33.52
62544;BME280;48597;49.030;1.822;2024-01-15T03:13:15;100077.25;;;19.11;33.55
62544;BME280;48597;49.030;1.822;2024-01-15T03:15:42;100079.31;;;19.11;33.54
62544;BME280;48597;49.030;1.822;2024-01-15T03:18:08;100067.09;;;19.10;33.56
62544;BME280;48597;49.030;1.822;2024-01-15T03:20:33;100065.84;;;19.11;33.55
62544;BME280;48597;49.030;1.822;2024-01-15T03:22:58;100062.19;;;19.11;33.48
62544;BME280;48597;49.030;1.822;2024-01-15T03:25:24;100063.78;;;19.12;33.48
62544;BME280;48597;49.030;1.822;2024-01-15T03:27:49;100066.00;;;19.08;33.48
62544;BME280;48597;49.030;1.822;2024-01-15T03:30:15;100067.09;;;19.10;33.50
62544;BME280;48597;49.030;1.822;2024-01-15T03:32:40;100062.63;;;19.09;33.46
62544;BME280;48597;49.030;1.822;2024-01-15T03:35:06;100063.94;;;19.08;33.55
62544;BME280;48597;49.030;1.822;2024-01-15T03:37:31;100067.25;;;19.07;33.56
62544;BME280;48597;49.030;1.822;2024-01-15T03:39:56;100060.75;;;19.06;33.56
62544;BME280;48597;49.030;1.822;2024-01-15T03:42:22;100053.78;;;19.07;33.55
62544;BME280;48597;49.030;1.822;2024-01-15T03:44:47;100052.97;;;19.07;33.59
62544;BME280;48597;49.030;1.822;2024-01-15T03:47:13;100045.19;;;19.07;33.59
62544;BME280;48597;49.030;1.822;2024-01-15T03:49:38;100046.00;;;19.08;33.58
62544;BME280;48597;49.030;1.822;2024-01-15T03:52:04;100036.94;;;19.09;33.63
62544;BME280;48597;49.030;1.822;2024-01-15T03:54:29;100031.72;;;19.08;33.67
62544;BME280;48597;49.030;1.822;2024-01-15T03:56:54;100028.69;;;19.11;33.64
62544;BME280;48597;49.030;1.822;2024-01-15T03:59:20;100025.84;;;19.11;33.58
62544;BME280;48597;49.030;1.822;2024-01-15T04:01:51;100024.59;;;19.12;33.73
62544;BME280;48597;49.030;1.822;2024-01-15T04:04:17;100022.88;;;19.15;33.67
62544;BME280;48597;49.030;1.822;2024-01-15T04:06:43;100016.81;;;19.13;33.70
62544;BME280;48597;49.030;1.822;2024-01-15T04:09:09;100011.56;;;19.11;33.72
62544;BME280;48597;49.030;1.822;2024-01-15T04:11:34;100017.16;;;19.15;33.66
62544;BME280;48597;49.030;1.822;2024-01-15T04:14:00;100017.16;;;19.15;33.67
62544;BME280;48597;49.030;1.822;2024-01-15T04:16:25;100017.16;;;19.15;33.44
62544;BME280;48597;49.030;1.822;2024-01-15T04:18:50;100007.78;;;19.14;33.48
62544;BME280;48597;49.030;1.822;2024-01-15T04:21:17;100007.78;;;19.14;33.70
62544;BME280;48597;49.030;1.822;2024-01-15T04:23:43;100007.78;;;19.14;33.50
62544;BME280;48597;49.030;1.822;2024-01-15T04:26:09;100003.31;;;19.13;33.68
62544;BME280;48597;49.030;1.822;2024-01-15T04:28:34;100012.69;;;19.14;33.55
62544;BME280;48597;49.030;1.822;2024-01-15T04:31:00;100004.91;;;19.14;33.45
62544;BME280;48597;49.030;1.822;2024-01-15T04:33:25;100000.47;;;19.13;33.61
62544;BME280;48597;49.030;1.822;2024-01-15T04:35:50;100002.53;;;19.13;33.67
62544;BME280;48597;49.030;1.822;2024-01-15T04:38:16;100006.66;;;19.12;33.60
62544;BME280;48597;49.030;1.822;2024-01-15T04:40:41;99998.06;;;19.12;33.61
62544;BME280;48597;49.030;1.822;2024-01-15T04:43:06;100003.31;;;19.13;33.64
62544;BME280;48597;49.030;1.822;2024-01-15T04:45:32;100001.72;;;19.12;33.57
62544;BME280;48597;49.030;1.822;2024-01-15T04:47:58;100003.00;;;19.11;33.61
62544;BME280;48597;49.030;1.822;2024-01-15T04:50:24;99996.94;;;19.09;33.56
62544;BME280;48597;49.030;1.822;2024-01-15T04:52:50;99990.78;;;19.11;33.66
62544;BME280;48597;49.030;1.822;2024-01-15T04:55:15;99999.34;;;19.11;33.56
62544;BME280;48597;49.030;1.822;2024-01-15T04:57:41;99999.34;;;19.11;33.66
62544;BME280;48597;49.030;1.822;2024-01-15T05:00:06;100002.19;;;19.11;33.53
62544;BME280;48597;49.030;1.822;2024-01-15T05:02:32;99994.44;;;19.11;33.64
62544;BME280;48597;49.030;1.822;2024-01-15T05:04:57;100002.19;;;19.11;33.58
62544;BME280;48597;49.030;1.822;2024-01-15T05:07:23;99999.22;;;19.14;33.72
62544;BME280;48597;49.030;1.822;2024-01-15T05:09:48;100002.88;;;19.15;33.58
62544;BME280;48597;49.030;1.822;2024-01-15T05:12:13;100004.13;;;19.14;33.67
62544;BME280;48597;49.030;1.822;2024-01-15T05:14:39;99990.31;;;19.12;33.66
62544;BME280;48597;49.030;1.822;2024-01-15T05:17:05;99989.84;;;19.14;33.64
62544;BME280;48597;49.030;1.822;2024-01-15T05:19:30;99990.19;;;19.16;33.54
62544;BME280;48597;49.030;1.822;2024-01-15T05:21:55;99988.13;;;19.16;33.47
62544;BME280;48597;49.030;1.822;2024-01-15T05:24:20;99990.19;;;19.16;33.52
62544;BME280;48597;49.030;1.822;2024-01-15T05:26:46;99984.78;;;19.18;33.54
62544;BME280;48597;49.030;1.822;2024-01-15T05:29:12;99983.53;;;19.19;33.48
62544;BME280;48597;49.030;1.822;2024-01-15T05:31:37;99984.34;;;19.19;33.56
62544;BME280;48597;49.030;1.822;2024-01-15T05:34:02;99969.72;;;19.17;33.49
62544;BME280;48597;49.030;1.822;2024-01-15T05:36:28;99981.16;;;19.17;33.44
62544;BME280;48597;49.030;1.822;2024-01-15T05:38:53;99981.94;;;19.18;33.38
62544;BME280;48597;49.030;1.822;2024-01-15T05:41:18;99969.38;;;19.15;33.45
62544;BME280;48597;49.030;1.822;2024-01-15T05:43:44;99971.78;;;19.17;33.36
62544;BME280;48597;49.030;1.822;2024-01-15T05:46:09;99975.09;;;19.15;33.55
62544;BME280;48597;49.030;1.822;2024-01-15T05:48:34;99989.38;;;19.15;33.43
62544;BME280;48597;49.030;1.822;2024-01-15T05:51:00;99981.28;;;19.14;33.56
62544;BME280;48597;49.030;1.822;2024-01-15T05:53:25;99978.41;;;19.14;33.43
62544;BME280;48597;49.030;1.822;2024-01-15T05:55:51;99976.03;;;19.12;33.53
62544;BME280;48597;49.030;1.822;2024-01-15T05:58:16;99978.09;;;19.12;33.39
62544;BME280;48597;49.030;1.822;2024-01-15T06:00:42;99972.38;;;19.12;33.54
62544;BME280;48597;49.030;1.822;2024-01-15T06:03:08;99963.81;;;19.12;33.63
62544;BME280;48597;49.030;1.822;2024-01-15T06:05:33;99964.59;;;19.12;33.54
62544;BME280;48597;49.030;1.822;2024-01-15T06:07:58;99961.75;;;19.12;33.44
62544;BME280;48597;49.030;1.822;2024-01-15T06:10:24;99958.88;;;19.12;33.80
62544;BME280;48597;49.030;1.822;2024-01-15T06:12:49;99964.25;;;19.10;33.52
62544;BME280;48597;49.030;1.822;2024-01-15T06:15:14;99972.84;;;19.10;33.87
62544;BME280;48597;49.030;1.822;2024-01-15T06:17:40;99969.19;;;19.10;33.49
62544;BME280;48597;49.030;1.822;2024-01-15T06:20:06;99964.59;;;19.12;33.64
62544;BME280;48597;49.030;1.822;2024-01-15T06:22:31;99970.31;;;19.12;33.70
62544;BME280;48597;49.030;1.822;2024-01-15T06:24:57;99973.16;;;19.12;33.62
62544;BME280;48597;49.030;1.822;2024-01-15T06:27:22;99972.69;;;19.14;33.60
62544;BME280;48597;49.030;1.822;2024-01-15T06:29:48;99974.75;;;19.13;33.62
62544;BME280;48597;49.030;1.822;2024-01-15T06:32:13;99978.88;;;19.12;33.53
62544;BME280;48597;49.030;1.822;2024-01-15T06:34:39;99975.56;;;19.14;33.56
62544;BME280;48597;49.030;1.822;2024-01-15T06:37:05;99981.16;;;19.17;33.67
62544;BME280;48597;49.030;1.822;2024-01-15T06:39:30;99988.44;;;19.18;33.52
62544;BME280;48597;49.030;1.822;2024-01-15T06:41:55;99984.34;;;19.19;33.56
62544;BME280;48597;49.030;1.822;2024-01-15T06:44:21;99974.97;;;19.19;33.57
62544;BME280;48597;49.030;1.822;2024-01-15T06:46:47;99986.84;;;19.17;33.66
62544;BME280;48597;49.030;1.822;2024-01-15T06:49:13;99986.84;;;19.17;33.48
62544;BME280;48597;49.030;1.822;2024-01-15T06:51:38;99987.66;;;19.18;33.53
62544;BME280;48597;49.030;1.822;2024-01-15T06:54:04;99992.22;;;19.15;33.51
62544;BME280;48597;49.030;1.822;2024-01-15T06:56:29;99994.28;;;19.15;33.49
62544;BME280;48597;49.030;1.822;2024-01-15T06:58:55;99992.69;;;19.14;33.73
62544;BME280;48597;49.030;1.822;2024-01-15T07:01:20;99986.19;;;19.13;33.48
62544;BME280;48597;49.030;1.822;2024-01-15T07:03:46;99993.50;;;19.14;33.51
62544;BME280;48597;49.030;1.822;2024-01-15T07:06:11;99999.22;;;19.14;33.34
62544;BME280;48597;49.030;1.822;2024-01-15T07:08:37;100009.03;;;19.13;33.53
62544;BME280;48597;49.030;1.822;2024-01-15T07:11:04;100004.91;;;19.14;33.50
62544;BME280;48597;49.030;1.822;2024-01-15T07:13:29;100000.00;;;19.15;33.67
62544;BME280;48597;49.030;1.822;2024-01-15T07:15:55;99998.41;;;19.14;33.53
62544;BME280;48597;49.030;1.822;2024-01-15T07:18:20;100005.38;;;19.13;33.54
62544;BME280;48597;49.030;1.822;2024-01-15T07:20:46;100013.97;;;19.13;33.56
62544;BME280;48597;49.030;1.822;2024-01-15T07:23:11;100020.28;;;19.08;33.52
62544;BME280;48597;49.030;1.822;2024-01-15T07:25:37;100023.59;;;19.06;33.61
62544;BME280;48597;49.030;1.822;2024-01-15T07:28:02;100024.06;;;19.05;33.63
62544;BME280;48597;49.030;1.822;2024-01-15T07:30:29;100031.50;;;19.02;33.69
62544;BME280;48597;49.030;1.822;2024-01-15T07:32:54;100029.09;;;19.01;33.45
62544;BME280;48597;49.030;1.822;2024-01-15T07:35:20;100037.34;;;18.99;33.48
62544;BME280;48597;49.030;1.822;2024-01-15T07:37:46;100034.16;;;18.97;33.46
62544;BME280;48597;49.030;1.822;2024-01-15T07:40:11;100027.34;;;18.94;33.73
62544;BME280;48597;49.030;1.822;2024-01-15T07:42:37;100035.09;;;18.94;33.71
62544;BME280;48597;49.030;1.822;2024-01-15T07:45:04;100033.50;;;18.92;33.56
62544;BME280;48597;49.030;1.822;2024-01-15T07:47:30;100031.91;;;18.91;33.57
62544;BME280;48597;49.030;1.822;2024-01-15T07:49:55;100041.72;;;18.90;33.70
62544;BME280;48597;49.030;1.822;2024-01-15T07:52:21;100041.72;;;18.90;33.75
62544;BME280;48597;49.030;1.822;2024-01-15T07:54:46;100042.53;;;18.91;33.86
62544;BME280;48597;49.030;1.822;2024-01-15T07:57:13;100044.94;;;18.92;33.75
62544;BME280;48597;49.030;1.822;2024-01-15T07:59:38;100047.31;;;18.94;33.71
62544;BME280;48597;49.030;1.822;2024-01-15T08:02:03;100048.13;;;18.95;33.80
62544;BME280;48597;49.030;1.822;2024-01-15T08:04:29;100056.69;;;18.95;33.76
62544;BME280;48597;49.030;1.822;2024-01-15T08:06:55;100056.69;;;18.95;33.74
62544;BME280;48597;49.030;1.822;2024-01-15T08:09:20;100060.34;;;18.95;33.80
62544;BME280;48597;49.030;1.822;2024-01-15T08:11:46;100058.75;;;18.94;33.95
62544;BME280;48597;49.030;1.822;2024-01-15T08:14:12;100060.81;;;18.94;33.91
62544;BME280;48597;49.030;1.822;2024-01-15T08:16:38;100066.50;;;18.94;33.81
62544;BME280;48597;49.030;1.822;2024-01-15T08:19:04;100074.28;;;18.93;34.04
62544;BME280;48597;49.030;1.822;2024-01-15T08:21:30;100068.56;;;18.93;33.84
62544;BME280;48597;49.030;1.822;2024-01-15T08:23:57;100073.81;;;18.95;33.93
62544;BME280;48597;49.030;1.822;2024-01-15T08:26:23;100076.69;;;18.95;33.96
62544;BME280;48597;49.030;1.822;2024-01-15T08:28:48;100073.31;;;18.96;33.98
62544;BME280;48597;49.030;1.822;2024-01-15T08:31:17;100080.00;;;18.93;33.96
62544;BME280;48597;49.030;1.822;2024-01-15T08:33:42;100078.06;;;18.90;33.81
62544;BME280;48597;49.030;1.822;2024-01-15T08:36:09;100087.53;;;18.87;34.02
62544;BME280;48597;49.030;1.822;2024-01-15T08:38:34;100092.44;;;18.86;33.99
62544;BME280;48597;49.030;1.822;2024-01-15T08:41:00;100088.81;;;18.86;34.11
62544;BME280;48597;49.030;1.822;2024-01-15T08:43:26;100083.56;;;18.84;34.03
62544;BME280;48597;49.030;1.822;2024-01-15T08:45:52;100090.84;;;18.85;34.02
62544;BME280;48597;49.030;1.822;2024-01-15T08:48:17;100102.28;;;18.85;33.95
62544;BME280;48597;49.030;1.822;2024-01-15T08:50:42;100105.13;;;18.85;33.92
62544;BME280;48597;49.030;1.822;2024-01-15T08:53:11;100110.38;;;18.87;34.04
62544;BME280;48597;49.030;1.822;2024-01-15T08:55:37;100115.28;;;18.86;33.97
62544;BME280;48597;49.030;1.822;2024-01-15T08:58:02;100113.69;;;18.85;34.11
62544;BME280;48597;49.030;1.822;2024-01-15T09:00:28;100112.09;;;18.84;34.11
62544;BME280;48597;49.030;1.822;2024-01-15T09:02:55;100112.56;;;18.83;34.00
62544;BME280;48597;49.030;1.822;2024-01-15T09:05:21;100117.16;;;18.80;34.18
62544;BME280;48597;49.030;1.822;2024-01-15T09:07:46;100117.63;;;18.79;34.25
62544;BME280;48597;49.030;1.822;2024-01-15T09:10:12;100116.03;;;18.78;34.23
62544;BME280;48597;49.030;1.822;2024-01-15T09:12:37;100115.69;;;18.76;34.10
62544;BME280;48597;49.030;1.822;2024-01-15T09:15:04;100109.63;;;18.74;34.22
62544;BME280;48597;49.030;1.822;2024-01-15T09:17:31;100117.41;;;18.73;34.14
62544;BME280;48597;49.030;1.822;2024-01-15T09:19:57;100115.78;;;18.72;33.91
62544;BME280;48597;49.030;1.822;2024-01-15T09:22:22;100111.34;;;18.71;34.35
62544;BME280;48597;49.030;1.822;2024-01-15T09:24:47;100108.94;;;18.70;34.27
62544;BME280;48597;49.030;1.822;2024-01-15T09:27:13;100103.72;;;18.68;34.22
62544;BME280;48597;49.030;1.822;2024-01-15T09:29:38;100107.84;;;18.67;34.19
62544;BME280;48597;49.030;1.822;2024-01-15T09:32:06;100114.81;;;18.66;34.19
62544;BME280;48597;49.030;1.822;2024-01-15T09:34:33;100122.56;;;18.66;33.96
62544;BME280;48597;49.030;1.822;2024-01-15T09:36:58;100128.72;;;18.64;34.05
62544;BME280;48597;49.030;1.822;2024-01-15T09:39:28;100133.63;;;18.64;34.35
62544;BME280;48597;49.030;1.822;2024-01-15T09:41:54;100137.75;;;18.63;34.19
62544;BME280;48597;49.030;1.822;2024-01-15T09:44:20;100132.84;;;18.63;34.25
62544;BME280;48597;49.030;1.822;2024-01-15T09:46:47;100147.91;;;18.64;34.36
62544;BME280;48597;49.030;1.822;2024-01-15T09:49:14;100145.06;;;18.64;34.36
62544;BME280;48597;49.030;1.822;2024-01-15T09:51:41;100143.00;;;18.64;34.35
62544;BME280;48597;49.030;1.822;2024-01-15T09:54:07;100140.94;;;18.65;34.41
62544;BME280;48597;49.030;1.822;2024-01-15T09:56:34;100149.06;;;18.66;34.37
62544;BME280;48597;49.030;1.822;2024-01-15T09:59:00;100148.59;;;18.68;34.23
62544;BME280;48597;49.030;1.822;2024-01-15T10:01:25;100152.25;;;18.68;34.25
62544;BME280;48597;49.030;1.822;2024-01-15T10:03:51;100149.41;;;18.68;34.21
62544;BME280;48597;49.030;1.822;2024-01-15T10:06:18;100153.84;;;18.69;34.37
62544;BME280;48597;49.030;1.822;2024-01-15T10:08:48;100146.53;;;18.68;34.24
62544;BME280;48597;49.030;1.822;2024-01-15T10:11:14;100152.56;;;18.70;34.38
62544;BME280;48597;49.030;1.822;2024-01-15T10:13:39;100158.28;;;18.70;34.28
62544;BME280;48597;49.030;1.822;2024-01-15T10:16:05;100162.41;;;18.69;34.20
62544;BME280;48597;49.030;1.822;2024-01-15T10:18:31;100162.41;;;18.69;34.38
62544;BME280;48597;49.030;1.822;2024-01-15T10:20:57;100162.41;;;18.69;34.31
62544;BME280;48597;49.030;1.822;2024-01-15T10:23:25;100167.78;;;18.67;34.39
62544;BME280;48597;49.030;1.822;2024-01-15T10:25:50;100161.63;;;18.69;34.52
62544;BME280;48597;49.030;1.822;2024-01-15T10:28:17;100168.13;;;18.69;34.49
62544;BME280;48597;49.030;1.822;2024-01-15T10:30:44;100169.69;;;18.70;34.40
62544;BME280;48597;49.030;1.822;2024-01-15T10:33:09;100180.31;;;18.70;34.58
62544;BME280;48597;49.030;1.822;2024-01-15T10:35:35;100170.50;;;18.71;34.63
62544;BME280;48597;49.030;1.822;2024-01-15T10:38:00;100169.69;;;18.70;34.73
62544;BME280;48597;49.030;1.822;2024-01-15T10:40:27;100165.59;;;18.71;34.70
62544;BME280;48597;49.030;1.822;2024-01-15T10:42:52;100171.28;;;18.71;34.73
62544;BME280;48597;49.030;1.822;2024-01-15T10:45:18;100170.03;;;18.72;34.58
62544;BME280;48597;49.030;1.822;2024-01-15T10:47:44;100177.34;;;18.73;34.47
62544;BME280;48597;49.030;1.822;2024-01-15T10:50:12;100170.38;;;18.74;34.55
62544;BME280;48597;49.030;1.822;2024-01-15T10:52:47;100178.94;;;18.74;34.70
62544;BME280;48597;49.030;1.822;2024-01-15T10:55:13;100176.44;;;18.76;34.74
62544;BME280;48597;49.030;1.822;2024-01-15T10:57:42;100171.53;;;18.77;34.64
62544;BME280;48597;49.030;1.822;2024-01-15T11:00:10;100178.03;;;18.77;34.66
62544;BME280;48597;49.030;1.822;2024-01-15T11:02:40;100184.09;;;18.79;34.83
62544;BME280;48597;49.030;1.822;2024-01-15T11:05:06;100175.06;;;18.81;34.82
62544;BME280;48597;49.030;1.822;2024-01-15T11:07:31;100177.47;;;18.82;34.80
62544;BME280;48597;49.030;1.822;2024-01-15T11:09:56;100176.66;;;18.82;34.76
62544;BME280;48597;49.030;1.822;2024-01-15T11:12:25;100175.88;;;18.81;34.99
62544;BME280;48597;49.030;1.822;2024-01-15T11:14:51;100179.03;;;18.83;34.64
62544;BME280;48597;49.030;1.822;2024-01-15T11:17:17;100178.47;;;18.88;34.86
62544;BME280;48597;49.030;1.822;2024-01-15T11:19:46;100181.31;;;18.88;34.95
62544;BME280;48597;49.030;1.822;2024-01-15T11:24:56;100189.31;;;18.94;34.96
62544;BME280;48597;49.030;1.822;2024-01-15T11:27:42;100181.53;;;18.94;34.84
62544;BME280;48597;49.030;1.822;2024-01-15T11:30:09;100186.44;;;18.94;34.91
62544;BME280;48597;49.030;1.822;2024-01-15T11:32:35;100179.34;;;18.98;34.91
62544;BME280;48597;49.030;1.822;2024-01-15T11:35:01;100191.56;;;18.99;35.03
62544;BME280;48597;49.030;1.822;2024-01-15T11:40:18;100186.53;;;19.03;34.90
62544;BME280;48597;49.030;1.822;2024-01-15T11:42:44;100179.09;;;19.05;34.85
62544;BME280;48597;49.030;1.822;2024-01-15T11:45:10;100175.00;;;19.06;34.90
62544;BME280;48597;49.030;1.822;2024-01-15T11:47:46;100178.50;;;19.10;34.93
62544;BME280;48597;49.030;1.822;2024-01-15T11:50:17;100174.53;;;19.08;34.97
62544;BME280;48597;49.030;1.822;2024-01-15T11:52:51;100177.69;;;19.10;34.90
62544;BME280;48597;49.030;1.822;2024-01-15T11:55:27;100177.25;;;19.11;35.00
62544;BME280;48597;49.030;1.822;2024-01-15T11:57:57;100172.66;;;19.14;35.06
62544;BME280;48597;49.030;1.822;2024-01-15T12:00:25;100170.16;;;19.16;35.18
62544;BME280;48597;49.030;1.822;2024-01-15T12:02:51;100175.41;;;19.17;34.96
62544;BME280;48597;49.030;1.822;2024-01-15T12:05:18;100180.66;;;19.19;34.95
62544;BME280;48597;49.030;1.822;2024-01-15T12:07:45;100182.25;;;19.20;34.94
62544;BME280;48597;49.030;1.822;2024-01-15T12:10:12;100180.03;;;19.24;34.93
62544;BME280;48597;49.030;1.822;2024-01-15T12:13:00;100180.38;;;19.26;34.92
62544;BME280;48597;49.030;1.822;2024-01-15T12:15:29;100180.38;;;19.26;34.95
62544;BME280;48597;49.030;1.822;2024-01-15T12:17:56;100188.03;;;19.29;34.88
62544;BME280;48597;49.030;1.822;2024-01-15T12:20:24;100177.41;;;19.30;34.86
62544;BME280;48597;49.030;1.822;2024-01-15T12:22:49;100175.22;;;19.34;34.79
62544;BME280;48597;49.030;1.822;2024-01-15T12:25:15;100180.16;;;19.33;34.86
62544;BME280;48597;49.030;1.822;2024-01-15T12:27:40;100172.69;;;19.36;34.81
62544;BME280;48597;49.030;1.822;2024-01-15T12:30:06;100169.03;;;19.35;34.92
62544;BME280;48597;49.030;1.822;2024-01-15T12:32:32;100176.34;;;19.36;34.78
62544;BME280;48597;49.030;1.822;2024-01-15T12:35:00;100171.75;;;19.39;34.94
62544;BME280;48597;49.030;1.822;2024-01-15T12:37:26;100181.47;;;19.41;34.84
62544;BME280;48597;49.030;1.822;2024-01-15T12:39:52;100163.06;;;19.42;34.81
62544;BME280;48597;49.030;1.822;2024-01-15T12:42:21;100179.28;;;19.45;34.77
62544;BME280;48597;49.030;1.822;2024-01-15T12:44:46;100176.09;;;19.43;34.72
62544;BME280;48597;49.030;1.822;2024-01-15T12:47:12;100172.31;;;19.46;34.80
62544;BME280;48597;49.030;1.822;2024-01-15T12:49:38;100179.28;;;19.45;34.80
62544;BME280;48597;49.030;1.822;2024-01-15T12:52:03;100172.63;;;19.48;34.66
62544;BME280;48597;49.030;1.822;2024-01-15T12:54:29;100163.25;;;19.48;34.77